sensor_id;sensor_type;location;lat;lon;timestamp;P1;durP1;ratioP1;P2;durP2;ratioP2
53618;SDS011;39505;53.040;18.488;2023-02-19T00:00:10;12.43;;;3.65;;
53618;SDS011;39505;53.040;18.488;2023-02-19T00:00:45;9.45;;;3.70;;
53618;SDS011;39505;53.040;18.488;2023-02-19T00:01:19;9.85;;;3.83;;
53618;SDS011;39505;53.040;18.488;2023-02-19T00:01:34;10.48;;;3.72;;
53618;SDS011;39505;53.040;18.488;2023-02-19T00:01:49;12.13;;;3.72;;
53618;SDS011;39505;53.040;18.488;2023-02-19T00:02:03;12.25;;;3.60;;
53618;SDS011;39505;53.040;18.488;2023-02-19T00:02:16;12.52;;;3.80;;
53618;SDS011;39505;53.040;18.488;2023-02-19T00:02:30;12.82;;;3.90;;
53618;SDS011;39505;53.040;18.488;2023-02-19T00:02:43;12.27;;;3.80;;
53618;SDS011;39505;53.040;18.488;2023-02-19T00:02:59;10.95;;;3.85;;
53618;SDS011;39505;53.040;18.488;2023-02-19T00:03:13;11.98;;;4.05;;
53618;SDS011;39505;53.040;18.488;2023-02-19T00:03:26;10.88;;;3.83;;
53618;SDS011;39505;53.040;18.488;2023-02-19T00:03:40;9.48;;;3.60;;
53618;SDS011;39505;53.040;18.488;2023-02-19T00:03:54;11.70;;;4.13;;
53618;SDS011;39505;53.040;18.488;2023-02-19T00:04:11;13.93;;;4.00;;
53618;SDS011;39505;53.040;18.488;2023-02-19T00:04:25;11.52;;;3.50;;
53618;SDS011;39505;53.040;18.488;2023-02-19T00:04:38;10.40;;;3.65;;
53618;SDS011;39505;53.040;18.488;2023-02-19T00:04:51;9.52;;;3.50;;
53618;SDS011;39505;53.040;18.488;2023-02-19T00:05:04;8.85;;;3.47;;
53618;SDS011;39505;53.040;18.488;2023-02-19T00:05:17;9.40;;;3.55;;
53618;SDS011;39505;53.040;18.488;2023-02-19T00:05:30;12.02;;;3.95;;
53618;SDS011;39505;53.040;18.488;2023-02-19T00:05:47;11.85;;;3.75;;
53618;SDS011;39505;53.040;18.488;2023-02-19T00:06:00;10.52;;;3.75;;
53618;SDS011;39505;53.040;18.488;2023-02-19T00:06:14;10.75;;;3.80;;
53618;SDS011;39505;53.040;18.488;2023-02-19T00:06:28;11.82;;;3.40;;
53618;SDS011;39505;53.040;18.488;2023-02-19T00:06:43;12.05;;;3.40;;
53618;SDS011;39505;53.040;18.488;2023-02-19T00:06:58;10.77;;;3.15;;
53618;SDS011;39505;53.040;18.488;2023-02-19T00:07:11;10.48;;;3.00;;
53618;SDS011;39505;53.040;18.488;2023-02-19T00:07:24;11.00;;;3.45;;
53618;SDS011;39505;53.040;18.488;2023-02-19T00:07:37;11.25;;;3.60;;
53618;SDS011;39505;53.040;18.488;2023-02-19T00:07:50;14.43;;;3.97;;
53618;SDS011;39505;53.040;18.488;2023-02-19T00:08:03;14.30;;;3.80;;
53618;SDS011;39505;53.040;18.488;2023-02-19T00:08:16;11.88;;;3.40;;
53618;SDS011;39505;53.040;18.488;2023-02-19T00:08:28;9.48;;;3.30;;
53618;SDS011;39505;53.040;18.488;2023-02-19T00:08:43;9.32;;;3.13;;
53618;SDS011;39505;53.040;18.488;2023-02-19T00:08:56;11.52;;;3.17;;
53618;SDS011;39505;53.040;18.488;2023-02-19T00:09:10;11.82;;;3.28;;
53618;SDS011;39505;53.040;18.488;2023-02-19T00:09:24;10.00;;;3.20;;
53618;SDS011;39505;53.040;18.488;2023-02-19T00:09:37;10.43;;;3.28;;
53618;SDS011;39505;53.040;18.488;2023-02-19T00:09:51;11.18;;;3.08;;
53618;SDS011;39505;53.040;18.488;2023-02-19T00:10:04;9.45;;;2.78;;
53618;SDS011;39505;53.040;18.488;2023-02-19T00:10:18;9.30;;;2.70;;
53618;SDS011;39505;53.040;18.488;2023-02-19T00:10:31;9.50;;;2.90;;
53618;SDS011;39505;53.040;18.488;2023-02-19T00:10:44;8.77;;;2.92;;
53618;SDS011;39505;53.040;18.488;2023-02-19T00:10:59;9.65;;;2.97;;
53618;SDS011;39505;53.040;18.488;2023-02-19T00:11:13;12.23;;;3.38;;
53618;SDS011;39505;53.040;18.488;2023-02-19T00:11:29;12.30;;;3.30;;
53618;SDS011;39505;53.040;18.488;2023-02-19T00:11:44;11.70;;;3.17;;
53618;SDS011;39505;53.040;18.488;2023-02-19T00:11:57;10.07;;;3.20;;
53618;SDS011;39505;53.040;18.488;2023-02-19T00:12:10;9.65;;;2.95;;
53618;SDS011;39505;53.040;18.488;2023-02-19T00:12:23;11.70;;;2.92;;
53618;SDS011;39505;53.040;18.488;2023-02-19T00:12:36;11.27;;;3.13;;
53618;SDS011;39505;53.040;18.488;2023-02-19T00:12:50;9.38;;;3.08;;
53618;SDS011;39505;53.040;18.488;2023-02-19T00:13:03;10.18;;;3.05;;
53618;SDS011;39505;53.040;18.488;2023-02-19T00:13:18;10.63;;;3.10;;
53618;SDS011;39505;53.040;18.488;2023-02-19T00:13:34;10.35;;;3.30;;
53618;SDS011;39505;53.040;18.488;2023-02-19T00:13:49;11.15;;;3.30;;
53618;SDS011;39505;53.040;18.488;2023-02-19T00:14:03;9.93;;;2.95;;
53618;SDS011;39505;53.040;18.488;2023-02-19T00:14:18;8.23;;;2.75;;
53618;SDS011;39505;53.040;18.488;2023-02-19T00:14:32;8.77;;;2.97;;
53618;SDS011;39505;53.040;18.488;2023-02-19T00:14:45;8.82;;;3.10;;
53618;SDS011;39505;53.040;18.488;2023-02-19T00:14:58;9.18;;;2.65;;
53618;SDS011;39505;53.040;18.488;2023-02-19T00:15:12;10.55;;;2.63;;
53618;SDS011;39505;53.040;18.488;2023-02-19T00:15:24;11.70;;;2.90;;
53618;SDS011;39505;53.040;18.488;2023-02-19T00:15:37;11.20;;;2.83;;
53618;SDS011;39505;53.040;18.488;2023-02-19T00:15:52;9.10;;;2.75;;
53618;SDS011;39505;53.040;18.488;2023-02-19T00:16:06;8.45;;;2.60;;
53618;SDS011;39505;53.040;18.488;2023-02-19T00:16:20;8.38;;;2.50;;
53618;SDS011;39505;53.040;18.488;2023-02-19T00:16:35;9.75;;;2.80;;
53618;SDS011;39505;53.040;18.488;2023-02-19T00:16:49;9.70;;;3.00;;
53618;SDS011;39505;53.040;18.488;2023-02-19T00:17:03;9.80;;;3.00;;
53618;SDS011;39505;53.040;18.488;2023-02-19T00:17:16;10.38;;;2.95;;
53618;SDS011;39505;53.040;18.488;2023-02-19T00:17:29;10.38;;;2.80;;
53618;SDS011;39505;53.040;18.488;2023-02-19T00:17:42;9.43;;;2.72;;
53618;SDS011;39505;53.040;18.488;2023-02-19T00:17:56;9.98;;;2.75;;
53618;SDS011;39505;53.040;18.488;2023-02-19T00:18:09;10.55;;;2.90;;
53618;SDS011;39505;53.040;18.488;2023-02-19T00:18:21;11.10;;;2.92;;
53618;SDS011;39505;53.040;18.488;2023-02-19T00:18:35;11.23;;;2.90;;
53618;SDS011;39505;53.040;18.488;2023-02-19T00:18:49;10.15;;;2.78;;
53618;SDS011;39505;53.040;18.488;2023-02-19T00:19:03;9.88;;;2.90;;
53618;SDS011;39505;53.040;18.488;2023-02-19T00:19:19;9.88;;;3.22;;
53618;SDS011;39505;53.040;18.488;2023-02-19T00:19:32;9.55;;;3.20;;
53618;SDS011;39505;53.040;18.488;2023-02-19T00:19:45;10.48;;;3.03;;
53618;SDS011;39505;53.040;18.488;2023-02-19T00:19:58;10.13;;;2.90;;
53618;SDS011;39505;53.040;18.488;2023-02-19T00:20:12;8.23;;;2.97;;
53618;SDS011;39505;53.040;18.488;2023-02-19T00:20:25;8.90;;;2.80;;
53618;SDS011;39505;53.040;18.488;2023-02-19T00:20:39;9.07;;;2.72;;
53618;SDS011;39505;53.040;18.488;2023-02-19T00:20:54;10.98;;;2.70;;
53618;SDS011;39505;53.040;18.488;2023-02-19T00:21:08;10.48;;;2.83;;
53618;SDS011;39505;53.040;18.488;2023-02-19T00:21:21;10.27;;;3.00;;
53618;SDS011;39505;53.040;18.488;2023-02-19T00:21:36;13.75;;;3.33;;
53618;SDS011;39505;53.040;18.488;2023-02-19T00:21:50;13.80;;;3.47;;
53618;SDS011;39505;53.040;18.488;2023-02-19T00:22:05;11.55;;;3.42;;
53618;SDS011;39505;53.040;18.488;2023-02-19T00:22:21;10.27;;;3.25;;
53618;SDS011;39505;53.040;18.488;2023-02-19T00:22:34;9.75;;;3.13;;
53618;SDS011;39505;53.040;18.488;2023-02-19T00:22:47;10.48;;;3.28;;
53618;SDS011;39505;53.040;18.488;2023-02-19T00:23:00;11.40;;;3.17;;
53618;SDS011;39505;53.040;18.488;2023-02-19T00:23:15;11.93;;;3.17;;
53618;SDS011;39505;53.040;18.488;2023-02-19T00:23:28;12.13;;;3.40;;
53618;SDS011;39505;53.040;18.488;2023-02-19T00:23:41;12.07;;;3.42;;
53618;SDS011;39505;53.040;18.488;2023-02-19T00:23:55;11.57;;;3.75;;
53618;SDS011;39505;53.040;18.488;2023-02-19T00:24:10;13.48;;;4.55;;
53618;SDS011;39505;53.040;18.488;2023-02-19T00:24:25;15.75;;;5.55;;
53618;SDS011;39505;53.040;18.488;2023-02-19T00:24:39;18.75;;;6.47;;
53618;SDS011;39505;53.040;18.488;2023-02-19T00:24:52;18.40;;;6.45;;
53618;SDS011;39505;53.040;18.488;2023-02-19T00:25:05;16.42;;;5.82;;
53618;SDS011;39505;53.040;18.488;2023-02-19T00:25:18;18.08;;;5.85;;
53618;SDS011;39505;53.040;18.488;2023-02-19T00:25:31;18.73;;;5.97;;
53618;SDS011;39505;53.040;18.488;2023-02-19T00:25:48;17.65;;;5.82;;
53618;SDS011;39505;53.040;18.488;2023-02-19T00:26:01;17.52;;;5.72;;
53618;SDS011;39505;53.040;18.488;2023-02-19T00:26:29;18.63;;;6.20;;
53618;SDS011;39505;53.040;18.488;2023-02-19T00:26:44;16.17;;;5.45;;
53618;SDS011;39505;53.040;18.488;2023-02-19T00:26:58;15.82;;;5.18;;
53618;SDS011;39505;53.040;18.488;2023-02-19T00:27:11;17.80;;;5.88;;
53618;SDS011;39505;53.040;18.488;2023-02-19T00:27:24;19.27;;;6.20;;
53618;SDS011;39505;53.040;18.488;2023-02-19T00:27:37;20.67;;;6.13;;
53618;SDS011;39505;53.040;18.488;2023-02-19T00:27:50;21.50;;;6.05;;
53618;SDS011;39505;53.040;18.488;2023-02-19T00:28:03;22.65;;;6.63;;
53618;SDS011;39505;53.040;18.488;2023-02-19T00:28:18;20.85;;;6.70;;
53618;SDS011;39505;53.040;18.488;2023-02-19T00:28:31;17.73;;;6.20;;
53618;SDS011;39505;53.040;18.488;2023-02-19T00:28:45;18.17;;;5.90;;
53618;SDS011;39505;53.040;18.488;2023-02-19T00:28:59;20.33;;;6.00;;
53618;SDS011;39505;53.040;18.488;2023-02-19T00:29:13;20.63;;;6.07;;
53618;SDS011;39505;53.040;18.488;2023-02-19T00:29:28;18.17;;;5.68;;
53618;SDS011;39505;53.040;18.488;2023-02-19T00:29:42;16.55;;;5.57;;
53618;SDS011;39505;53.040;18.488;2023-02-19T00:29:55;16.40;;;5.43;;
53618;SDS011;39505;53.040;18.488;2023-02-19T00:30:08;15.43;;;5.25;;
53618;SDS011;39505;53.040;18.488;2023-02-19T00:30:22;15.73;;;5.43;;
53618;SDS011;39505;53.040;18.488;2023-02-19T00:30:35;15.27;;;5.35;;
53618;SDS011;39505;53.040;18.488;2023-02-19T00:30:48;17.35;;;5.18;;
53618;SDS011;39505;53.040;18.488;2023-02-19T00:31:05;18.38;;;5.00;;
53618;SDS011;39505;53.040;18.488;2023-02-19T00:31:21;16.08;;;4.70;;
53618;SDS011;39505;53.040;18.488;2023-02-19T00:31:36;14.98;;;4.47;;
53618;SDS011;39505;53.040;18.488;2023-02-19T00:31:49;13.10;;;4.22;;
53618;SDS011;39505;53.040;18.488;2023-02-19T00:32:02;13.65;;;4.13;;
53618;SDS011;39505;53.040;18.488;2023-02-19T00:32:16;15.65;;;3.97;;
53618;SDS011;39505;53.040;18.488;2023-02-19T00:32:30;15.15;;;3.80;;
53618;SDS011;39505;53.040;18.488;2023-02-19T00:32:48;13.75;;;4.05;;
53618;SDS011;39505;53.040;18.488;2023-02-19T00:33:02;16.42;;;4.20;;
53618;SDS011;39505;53.040;18.488;2023-02-19T00:33:15;17.38;;;4.05;;
53618;SDS011;39505;53.040;18.488;2023-02-19T00:33:28;14.23;;;4.00;;
53618;SDS011;39505;53.040;18.488;2023-02-19T00:33:41;13.65;;;4.10;;
53618;SDS011;39505;53.040;18.488;2023-02-19T00:33:55;13.00;;;4.20;;
53618;SDS011;39505;53.040;18.488;2023-02-19T00:34:11;12.57;;;3.97;;
53618;SDS011;39505;53.040;18.488;2023-02-19T00:34:24;11.98;;;3.78;;
53618;SDS011;39505;53.040;18.488;2023-02-19T00:34:37;11.35;;;3.70;;
53618;SDS011;39505;53.040;18.488;2023-02-19T00:34:51;11.55;;;3.95;;
53618;SDS011;39505;53.040;18.488;2023-02-19T00:35:04;11.10;;;3.72;;
53618;SDS011;39505;53.040;18.488;2023-02-19T00:35:17;11.60;;;3.47;;
53618;SDS011;39505;53.040;18.488;2023-02-19T00:35:32;11.88;;;3.35;;
53618;SDS011;39505;53.040;18.488;2023-02-19T00:35:46;10.30;;;3.20;;
53618;SDS011;39505;53.040;18.488;2023-02-19T00:35:59;9.40;;;2.92;;
53618;SDS011;39505;53.040;18.488;2023-02-19T00:36:14;10.52;;;3.03;;
53618;SDS011;39505;53.040;18.488;2023-02-19T00:36:28;11.70;;;3.25;;
53618;SDS011;39505;53.040;18.488;2023-02-19T00:36:42;10.02;;;3.13;;
53618;SDS011;39505;53.040;18.488;2023-02-19T00:36:57;9.25;;;3.00;;
53618;SDS011;39505;53.040;18.488;2023-02-19T00:37:10;12.50;;;2.95;;
53618;SDS011;39505;53.040;18.488;2023-02-19T00:37:23;14.45;;;3.00;;
53618;SDS011;39505;53.040;18.488;2023-02-19T00:37:36;12.90;;;3.08;;
53618;SDS011;39505;53.040;18.488;2023-02-19T00:37:49;11.52;;;3.05;;
53618;SDS011;39505;53.040;18.488;2023-02-19T00:38:02;10.70;;;2.90;;
53618;SDS011;39505;53.040;18.488;2023-02-19T00:38:24;10.68;;;3.03;;
53618;SDS011;39505;53.040;18.488;2023-02-19T00:38:51;11.05;;;3.05;;
53618;SDS011;39505;53.040;18.488;2023-02-19T00:39:18;11.30;;;4.10;;
53618;SDS011;39505;53.040;18.488;2023-02-19T00:39:48;11.95;;;3.20;;
53618;SDS011;39505;53.040;18.488;2023-02-19T00:40:09;13.35;;;3.50;;
53618;SDS011;39505;53.040;18.488;2023-02-19T00:40:22;14.90;;;3.75;;
53618;SDS011;39505;53.040;18.488;2023-02-19T00:40:37;14.52;;;4.07;;
53618;SDS011;39505;53.040;18.488;2023-02-19T00:40:50;12.48;;;3.80;;
53618;SDS011;39505;53.040;18.488;2023-02-19T00:41:03;12.02;;;3.90;;
53618;SDS011;39505;53.040;18.488;2023-02-19T00:41:30;16.42;;;5.40;;
53618;SDS011;39505;53.040;18.488;2023-02-19T00:41:44;17.00;;;5.80;;
53618;SDS011;39505;53.040;18.488;2023-02-19T00:41:57;17.42;;;6.00;;
53618;SDS011;39505;53.040;18.488;2023-02-19T00:42:11;18.88;;;6.07;;
53618;SDS011;39505;53.040;18.488;2023-02-19T00:42:24;19.23;;;5.75;;
53618;SDS011;39505;53.040;18.488;2023-02-19T00:42:37;16.90;;;4.95;;
53618;SDS011;39505;53.040;18.488;2023-02-19T00:42:49;12.68;;;3.97;;
53618;SDS011;39505;53.040;18.488;2023-02-19T00:43:02;11.25;;;3.60;;
53618;SDS011;39505;53.040;18.488;2023-02-19T00:43:17;12.18;;;3.67;;
53618;SDS011;39505;53.040;18.488;2023-02-19T00:43:30;10.88;;;3.55;;
53618;SDS011;39505;53.040;18.488;2023-02-19T00:43:42;9.10;;;3.30;;
53618;SDS011;39505;53.040;18.488;2023-02-19T00:43:55;8.85;;;3.00;;
53618;SDS011;39505;53.040;18.488;2023-02-19T00:44:09;10.10;;;2.90;;
53618;SDS011;39505;53.040;18.488;2023-02-19T00:44:23;11.18;;;3.15;;
53618;SDS011;39505;53.040;18.488;2023-02-19T00:44:36;11.48;;;3.30;;
53618;SDS011;39505;53.040;18.488;2023-02-19T00:44:49;11.98;;;3.38;;
53618;SDS011;39505;53.040;18.488;2023-02-19T00:45:01;10.80;;;3.28;;
53618;SDS011;39505;53.040;18.488;2023-02-19T00:45:14;10.10;;;3.30;;
53618;SDS011;39505;53.040;18.488;2023-02-19T00:45:27;10.68;;;3.20;;
53618;SDS011;39505;53.040;18.488;2023-02-19T00:45:39;11.73;;;3.40;;
53618;SDS011;39505;53.040;18.488;2023-02-19T00:45:52;11.80;;;3.38;;
53618;SDS011;39505;53.040;18.488;2023-02-19T00:46:06;11.52;;;3.25;;
53618;SDS011;39505;53.040;18.488;2023-02-19T00:46:20;10.63;;;3.42;;
53618;SDS011;39505;53.040;18.488;2023-02-19T00:46:35;11.38;;;4.30;;
53618;SDS011;39505;53.040;18.488;2023-02-19T00:46:49;12.35;;;4.15;;
53618;SDS011;39505;53.040;18.488;2023-02-19T00:47:03;12.13;;;3.22;;
53618;SDS011;39505;53.040;18.488;2023-02-19T00:47:15;10.80;;;3.13;;
53618;SDS011;39505;53.040;18.488;2023-02-19T00:47:28;9.07;;;3.00;;
53618;SDS011;39505;53.040;18.488;2023-02-19T00:47:40;10.38;;;2.85;;
53618;SDS011;39505;53.040;18.488;2023-02-19T00:47:53;10.15;;;2.72;;
53618;SDS011;39505;53.040;18.488;2023-02-19T00:48:06;10.85;;;2.97;;
53618;SDS011;39505;53.040;18.488;2023-02-19T00:48:18;11.38;;;3.03;;
53618;SDS011;39505;53.040;18.488;2023-02-19T00:48:31;11.43;;;2.90;;
53618;SDS011;39505;53.040;18.488;2023-02-19T00:48:44;9.95;;;2.72;;
53618;SDS011;39505;53.040;18.488;2023-02-19T00:48:57;9.25;;;2.75;;
53618;SDS011;39505;53.040;18.488;2023-02-19T00:49:12;9.68;;;2.72;;
53618;SDS011;39505;53.040;18.488;2023-02-19T00:49:28;9.32;;;2.70;;
53618;SDS011;39505;53.040;18.488;2023-02-19T00:49:40;8.77;;;2.80;;
53618;SDS011;39505;53.040;18.488;2023-02-19T00:49:54;8.88;;;3.00;;
53618;SDS011;39505;53.040;18.488;2023-02-19T00:50:06;9.80;;;3.05;;
53618;SDS011;39505;53.040;18.488;2023-02-19T00:50:19;8.93;;;3.00;;
53618;SDS011;39505;53.040;18.488;2023-02-19T00:50:32;8.15;;;2.75;;
53618;SDS011;39505;53.040;18.488;2023-02-19T00:50:44;12.27;;;3.10;;
53618;SDS011;39505;53.040;18.488;2023-02-19T00:50:57;11.88;;;2.90;;
53618;SDS011;39505;53.040;18.488;2023-02-19T00:51:10;12.00;;;2.85;;
53618;SDS011;39505;53.040;18.488;2023-02-19T00:51:23;10.68;;;2.80;;
53618;SDS011;39505;53.040;18.488;2023-02-19T00:51:38;10.88;;;2.92;;
53618;SDS011;39505;53.040;18.488;2023-02-19T00:51:51;11.05;;;2.80;;
53618;SDS011;39505;53.040;18.488;2023-02-19T00:52:04;11.13;;;2.70;;
53618;SDS011;39505;53.040;18.488;2023-02-19T00:52:17;8.70;;;2.60;;
53618;SDS011;39505;53.040;18.488;2023-02-19T00:52:29;7.85;;;2.80;;
53618;SDS011;39505;53.040;18.488;2023-02-19T00:52:42;8.45;;;2.55;;
53618;SDS011;39505;53.040;18.488;2023-02-19T00:52:55;8.50;;;2.53;;
53618;SDS011;39505;53.040;18.488;2023-02-19T00:53:07;10.50;;;2.67;;
53618;SDS011;39505;53.040;18.488;2023-02-19T00:53:21;12.02;;;3.13;;
53618;SDS011;39505;53.040;18.488;2023-02-19T00:53:33;12.52;;;3.53;;
53618;SDS011;39505;53.040;18.488;2023-02-19T00:53:46;11.82;;;3.40;;
53618;SDS011;39505;53.040;18.488;2023-02-19T00:53:59;11.05;;;3.10;;
53618;SDS011;39505;53.040;18.488;2023-02-19T00:54:12;9.88;;;2.70;;
53618;SDS011;39505;53.040;18.488;2023-02-19T00:54:25;9.70;;;2.65;;
53618;SDS011;39505;53.040;18.488;2023-02-19T00:54:39;10.15;;;2.70;;
53618;SDS011;39505;53.040;18.488;2023-02-19T00:54:51;11.05;;;2.60;;
53618;SDS011;39505;53.040;18.488;2023-02-19T00:55:04;10.95;;;2.50;;
53618;SDS011;39505;53.040;18.488;2023-02-19T00:55:17;10.05;;;2.70;;
53618;SDS011;39505;53.040;18.488;2023-02-19T00:55:30;8.75;;;2.85;;
53618;SDS011;39505;53.040;18.488;2023-02-19T00:55:42;10.05;;;2.92;;
53618;SDS011;39505;53.040;18.488;2023-02-19T00:55:55;10.93;;;2.83;;
53618;SDS011;39505;53.040;18.488;2023-02-19T00:56:08;9.52;;;2.80;;
53618;SDS011;39505;53.040;18.488;2023-02-19T00:56:21;10.18;;;2.92;;
53618;SDS011;39505;53.040;18.488;2023-02-19T00:56:34;10.40;;;2.92;;
53618;SDS011;39505;53.040;18.488;2023-02-19T00:56:47;9.00;;;2.60;;
53618;SDS011;39505;53.040;18.488;2023-02-19T00:57:00;8.98;;;2.70;;
53618;SDS011;39505;53.040;18.488;2023-02-19T00:57:12;9.80;;;2.88;;
53618;SDS011;39505;53.040;18.488;2023-02-19T00:57:26;10.25;;;2.70;;
53618;SDS011;39505;53.040;18.488;2023-02-19T00:57:39;11.55;;;3.00;;
53618;SDS011;39505;53.040;18.488;2023-02-19T00:57:51;12.98;;;3.20;;
53618;SDS011;39505;53.040;18.488;2023-02-19T00:58:04;12.82;;;3.13;;
53618;SDS011;39505;53.040;18.488;2023-02-19T00:58:18;9.73;;;2.90;;
53618;SDS011;39505;53.040;18.488;2023-02-19T00:58:31;8.35;;;2.78;;
53618;SDS011;39505;53.040;18.488;2023-02-19T00:58:43;9.50;;;2.80;;
53618;SDS011;39505;53.040;18.488;2023-02-19T00:58:58;9.35;;;2.70;;
53618;SDS011;39505;53.040;18.488;2023-02-19T00:59:10;9.08;;;2.62;;
53618;SDS011;39505;53.040;18.488;2023-02-19T00:59:23;8.38;;;2.40;;
53618;SDS011;39505;53.040;18.488;2023-02-19T00:59:35;6.75;;;2.30;;
53618;SDS011;39505;53.040;18.488;2023-02-19T00:59:48;10.88;;;2.40;;
53618;SDS011;39505;53.040;18.488;2023-02-19T01:00:01;12.65;;;2.72;;
53618;SDS011;39505;53.040;18.488;2023-02-19T01:00:13;11.02;;;2.80;;
53618;SDS011;39505;53.040;18.488;2023-02-19T01:00:27;9.40;;;2.70;;
53618;SDS011;39505;53.040;18.488;2023-02-19T01:00:40;8.35;;;2.60;;
53618;SDS011;39505;53.040;18.488;2023-02-19T01:00:52;12.95;;;3.70;;
53618;SDS011;39505;53.040;18.488;2023-02-19T01:01:06;14.48;;;3.58;;
53618;SDS011;39505;53.040;18.488;2023-02-19T01:01:19;10.13;;;2.60;;
53618;SDS011;39505;53.040;18.488;2023-02-19T01:01:32;10.32;;;2.83;;
53618;SDS011;39505;53.040;18.488;2023-02-19T01:01:45;11.10;;;2.90;;
53618;SDS011;39505;53.040;18.488;2023-02-19T01:01:58;12.43;;;3.00;;
53618;SDS011;39505;53.040;18.488;2023-02-19T01:02:11;13.80;;;3.03;;
53618;SDS011;39505;53.040;18.488;2023-02-19T01:02:23;13.88;;;3.05;;
53618;SDS011;39505;53.040;18.488;2023-02-19T01:02:37;11.02;;;3.00;;
53618;SDS011;39505;53.040;18.488;2023-02-19T01:02:50;10.98;;;3.10;;
53618;SDS011;39505;53.040;18.488;2023-02-19T01:03:03;11.50;;;3.05;;
53618;SDS011;39505;53.040;18.488;2023-02-19T01:03:16;11.40;;;2.88;;
53618;SDS011;39505;53.040;18.488;2023-02-19T01:03:29;10.68;;;3.45;;
53618;SDS011;39505;53.040;18.488;2023-02-19T01:03:42;10.70;;;3.85;;
53618;SDS011;39505;53.040;18.488;2023-02-19T01:03:55;12.70;;;3.80;;
53618;SDS011;39505;53.040;18.488;2023-02-19T01:04:07;14.15;;;3.88;;
53618;SDS011;39505;53.040;18.488;2023-02-19T01:04:20;14.82;;;3.92;;
53618;SDS011;39505;53.040;18.488;2023-02-19T01:04:33;13.75;;;3.85;;
53618;SDS011;39505;53.040;18.488;2023-02-19T01:04:46;12.35;;;3.63;;
53618;SDS011;39505;53.040;18.488;2023-02-19T01:04:59;11.70;;;3.42;;
53618;SDS011;39505;53.040;18.488;2023-02-19T01:05:12;12.02;;;3.42;;
53618;SDS011;39505;53.040;18.488;2023-02-19T01:05:24;13.25;;;3.70;;
53618;SDS011;39505;53.040;18.488;2023-02-19T01:05:37;12.65;;;3.55;;
53618;SDS011;39505;53.040;18.488;2023-02-19T01:05:49;12.18;;;3.22;;
53618;SDS011;39505;53.040;18.488;2023-02-19T01:06:05;12.23;;;3.50;;
53618;SDS011;39505;53.040;18.488;2023-02-19T01:06:19;11.25;;;3.70;;
53618;SDS011;39505;53.040;18.488;2023-02-19T01:06:32;10.55;;;3.60;;
53618;SDS011;39505;53.040;18.488;2023-02-19T01:06:46;13.13;;;3.85;;
53618;SDS011;39505;53.040;18.488;2023-02-19T01:06:59;14.48;;;3.88;;
53618;SDS011;39505;53.040;18.488;2023-02-19T01:07:13;13.40;;;4.03;;
53618;SDS011;39505;53.040;18.488;2023-02-19T01:07:27;10.65;;;3.30;;
53618;SDS011;39505;53.040;18.488;2023-02-19T01:07:39;10.23;;;2.92;;
53618;SDS011;39505;53.040;18.488;2023-02-19T01:07:52;10.07;;;2.90;;
53618;SDS011;39505;53.040;18.488;2023-02-19T01:08:05;8.93;;;2.90;;
53618;SDS011;39505;53.040;18.488;2023-02-19T01:08:17;9.02;;;2.85;;
53618;SDS011;39505;53.040;18.488;2023-02-19T01:08:30;9.57;;;3.00;;
53618;SDS011;39505;53.040;18.488;2023-02-19T01:08:44;10.07;;;2.72;;
53618;SDS011;39505;53.040;18.488;2023-02-19T01:08:58;11.82;;;2.78;;
53618;SDS011;39505;53.040;18.488;2023-02-19T01:09:10;13.10;;;3.10;;
53618;SDS011;39505;53.040;18.488;2023-02-19T01:09:23;11.63;;;2.97;;
53618;SDS011;39505;53.040;18.488;2023-02-19T01:09:36;10.48;;;2.92;;
53618;SDS011;39505;53.040;18.488;2023-02-19T01:09:50;10.18;;;2.88;;
53618;SDS011;39505;53.040;18.488;2023-02-19T01:10:02;12.73;;;3.17;;
53618;SDS011;39505;53.040;18.488;2023-02-19T01:10:15;14.48;;;3.38;;
53618;SDS011;39505;53.040;18.488;2023-02-19T01:10:28;11.95;;;2.97;;
53618;SDS011;39505;53.040;18.488;2023-02-19T01:10:41;9.75;;;2.80;;
53618;SDS011;39505;53.040;18.488;2023-02-19T01:10:54;9.60;;;2.78;;
53618;SDS011;39505;53.040;18.488;2023-02-19T01:11:08;9.40;;;2.80;;
53618;SDS011;39505;53.040;18.488;2023-02-19T01:11:21;11.90;;;2.97;;
53618;SDS011;39505;53.040;18.488;2023-02-19T01:11:34;12.85;;;3.03;;
53618;SDS011;39505;53.040;18.488;2023-02-19T01:11:46;14.15;;;3.00;;
53618;SDS011;39505;53.040;18.488;2023-02-19T01:11:59;13.15;;;3.13;;
53618;SDS011;39505;53.040;18.488;2023-02-19T01:12:12;11.93;;;3.05;;
53618;SDS011;39505;53.040;18.488;2023-02-19T01:12:25;12.60;;;3.20;;
53618;SDS011;39505;53.040;18.488;2023-02-19T01:12:39;13.68;;;3.33;;
53618;SDS011;39505;53.040;18.488;2023-02-19T01:12:51;11.73;;;3.47;;
53618;SDS011;39505;53.040;18.488;2023-02-19T01:13:04;12.13;;;3.47;;
53618;SDS011;39505;53.040;18.488;2023-02-19T01:13:18;11.82;;;3.42;;
53618;SDS011;39505;53.040;18.488;2023-02-19T01:13:31;11.95;;;3.78;;
53618;SDS011;39505;53.040;18.488;2023-02-19T01:13:45;12.25;;;3.85;;
53618;SDS011;39505;53.040;18.488;2023-02-19T01:13:57;15.52;;;4.30;;
53618;SDS011;39505;53.040;18.488;2023-02-19T01:14:12;15.93;;;4.55;;
53618;SDS011;39505;53.040;18.488;2023-02-19T01:14:24;15.18;;;4.60;;
53618;SDS011;39505;53.040;18.488;2023-02-19T01:14:37;14.82;;;4.43;;
53618;SDS011;39505;53.040;18.488;2023-02-19T01:14:50;14.55;;;4.78;;
53618;SDS011;39505;53.040;18.488;2023-02-19T01:15:03;14.52;;;4.70;;
53618;SDS011;39505;53.040;18.488;2023-02-19T01:15:15;16.98;;;4.55;;
53618;SDS011;39505;53.040;18.488;2023-02-19T01:15:28;19.33;;;4.90;;
53618;SDS011;39505;53.040;18.488;2023-02-19T01:15:43;17.48;;;4.80;;
53618;SDS011;39505;53.040;18.488;2023-02-19T01:16:01;14.57;;;4.38;;
53618;SDS011;39505;53.040;18.488;2023-02-19T01:16:16;12.18;;;4.40;;
53618;SDS011;39505;53.040;18.488;2023-02-19T01:16:30;13.80;;;4.13;;
53618;SDS011;39505;53.040;18.488;2023-02-19T01:16:43;14.02;;;4.03;;
53618;SDS011;39505;53.040;18.488;2023-02-19T01:16:56;13.65;;;3.83;;
53618;SDS011;39505;53.040;18.488;2023-02-19T01:17:08;14.13;;;3.95;;
53618;SDS011;39505;53.040;18.488;2023-02-19T01:17:21;13.10;;;4.18;;
53618;SDS011;39505;53.040;18.488;2023-02-19T01:17:34;13.32;;;4.28;;
53618;SDS011;39505;53.040;18.488;2023-02-19T01:17:47;12.60;;;4.00;;
53618;SDS011;39505;53.040;18.488;2023-02-19T01:18:00;13.50;;;3.92;;
53618;SDS011;39505;53.040;18.488;2023-02-19T01:18:13;13.95;;;4.07;;
53618;SDS011;39505;53.040;18.488;2023-02-19T01:18:25;12.43;;;4.13;;
53618;SDS011;39505;53.040;18.488;2023-02-19T01:18:38;13.10;;;3.88;;
53618;SDS011;39505;53.040;18.488;2023-02-19T01:18:51;13.25;;;3.47;;
53618;SDS011;39505;53.040;18.488;2023-02-19T01:19:04;14.55;;;3.30;;
53618;SDS011;39505;53.040;18.488;2023-02-19T01:19:18;14.85;;;3.40;;
53618;SDS011;39505;53.040;18.488;2023-02-19T01:19:31;12.90;;;3.50;;
53618;SDS011;39505;53.040;18.488;2023-02-19T01:19:43;9.77;;;3.30;;
53618;SDS011;39505;53.040;18.488;2023-02-19T01:19:56;9.63;;;3.15;;
53618;SDS011;39505;53.040;18.488;2023-02-19T01:20:09;12.05;;;3.17;;
53618;SDS011;39505;53.040;18.488;2023-02-19T01:20:21;16.20;;;3.53;;
53618;SDS011;39505;53.040;18.488;2023-02-19T01:20:36;15.95;;;3.60;;
53618;SDS011;39505;53.040;18.488;2023-02-19T01:20:49;11.50;;;3.28;;
53618;SDS011;39505;53.040;18.488;2023-02-19T01:21:04;8.32;;;2.92;;